Time;durP1;ratioP1;P1;durP2;ratioP2;P2;SDS_P1;SDS_P2;PMS_P1;PMS_P2;Temp;Humidity;BMP_temperature;BMP_pressure;BME280_temperature;BME280_humidity;BME280_pressure;Samples;Min_cycle;Max_cycle;Signal;HPM_P1;HPM_P2
2023/03/17 05:07:40;;;;;;;23.23;11.07;;;;;;;-3.13;100.00;101246.75;5555985;32;335160;-82
2023/03/17 05:10:44;;;;;;;24.27;10.90;;;;;;;-3.17;100.00;101251.00;5546843;32;33365;-83
2023/03/17 05:13:46;;;;;;;21.25;11.20;;;;;;;-3.09;100.00;101248.59;5547630;32;33778;-87
2023/03/17 05:16:49;;;;;;;21.87;11.05;;;;;;;-3.05;100.00;101246.94;5550236;32;34169;-87
2023/03/17 05:19:52;;;;;;;21.42;11.32;;;;;;;-2.86;100.00;101236.06;5545122;32;34240;-88
2023/03/17 05:22:55;;;;;;;19.87;10.63;;;;;;;-2.74;100.00;101238.03;5543779;32;34390;-87
2023/03/17 05:25:58;;;;;;;26.83;11.57;;;;;;;-2.57;100.00;101248.72;5543605;32;34118;-83
2023/03/17 05:29:01;;;;;;;21.42;11.48;;;;;;;-2.41;100.00;101237.75;5544113;32;34102;-84
2023/03/17 05:32:04;;;;;;;21.23;10.70;;;;;;;-2.44;100.00;101246.34;5544433;32;33276;-84
2023/03/17 05:35:07;;;;;;;19.83;10.70;;;;;;;-2.46;100.00;101248.06;5544333;32;33615;-83
2023/03/17 05:38:11;;;;;;;22.87;11.23;;;;;;;-2.40;100.00;101262.88;5549341;32;33780;-83
2023/03/17 05:41:14;;;;;;;24.58;11.93;;;;;;;-2.33;100.00;101257.81;5555310;32;35040;-84
2023/03/17 05:44:17;;;;;;;26.20;11.70;;;;;;;-2.06;100.00;101261.75;5556056;32;34708;-83
2023/03/17 05:47:20;;;;;;;22.08;11.25;;;;;;;-2.09;100.00;101258.22;5551989;32;33747;-83
2023/03/17 05:50:23;;;;;;;20.33;11.95;;;;;;;-1.96;100.00;101251.50;5555035;32;34299;-84
2023/03/17 05:53:26;;;;;;;21.65;10.85;;;;;;;-1.86;100.00;101242.12;5549879;32;33577;-83
2023/03/17 05:56:32;;;;;;;27.62;12.00;;;;;;;-1.70;100.00;101251.91;5553303;32;34013;-84
2023/03/17 05:59:35;;;;;;;21.65;11.35;;;;;;;-1.52;100.00;101259.09;5546769;32;33884;-84
2023/03/17 06:02:38;;;;;;;23.98;11.30;;;;;;;-1.51;100.00;101255.66;5547665;32;34698;-84
2023/03/17 06:05:42;;;;;;;23.65;12.02;;;;;;;-1.41;100.00;101264.47;5545361;32;34534;-84
2023/03/17 06:08:44;;;;;;;20.85;10.73;;;;;;;-1.23;100.00;101256.03;5546501;32;34098;-84
2023/03/17 06:11:47;;;;;;;20.62;10.85;;;;;;;-1.06;100.00;101257.13;5545322;32;34821;-83
2023/03/17 06:14:49;;;;;;;18.45;10.20;;;;;;;-0.79;99.69;101253.09;5545773;32;33746;-84
2023/03/17 06:17:53;;;;;;;24.73;9.82;;;;;;;-0.14;100.00;101262.44;5534877;32;33642;-83
2023/03/17 06:20:56;;;;;;;16.50;9.75;;;;;;;2.09;85.18;101252.03;5532417;32;34637;-82
2023/03/17 06:23:59;;;;;;;17.73;9.90;;;;;;;3.82;67.82;101254.03;5533392;32;34258;-82
2023/03/17 06:27:02;;;;;;;17.45;10.20;;;;;;;6.20;61.78;101264.31;5535607;32;34323;-83
2023/03/17 06:30:07;;;;;;;21.77;10.07;;;;;;;8.41;52.17;101263.97;5532724;32;34331;-83
2023/03/17 06:33:09;;;;;;;17.90;10.43;;;;;;;8.88;47.39;101260.97;5545851;32;34089;-83
2023/03/17 06:36:12;;;;;;;20.40;10.57;;;;;;;9.10;47.73;101269.16;5536143;32;33699;-83
2023/03/17 06:39:16;;;;;;;18.62;10.15;;;;;;;8.27;48.21;101270.50;5525426;32;33767;-84
2023/03/17 06:42:19;;;;;;;17.77;10.60;;;;;;;6.45;51.61;101262.09;5532610;32;33994;-83
2023/03/17 06:45:22;;;;;;;15.80;10.50;;;;;;;4.72;57.00;101269.81;5532664;32;35016;-82
2023/03/17 06:48:25;;;;;;;19.80;11.25;;;;;;;3.73;61.07;101271.56;5528746;32;33984;-82
2023/03/17 06:51:29;;;;;;;16.42;10.00;;;;;;;3.83;64.04;101274.13;5533042;32;35369;-83
2023/03/17 06:54:35;;;;;;;15.07;10.07;;;;;;;3.91;62.45;101274.94;5531273;32;34216;-83
2023/03/17 06:57:38;;;;;;;18.55;9.85;;;;;;;5.19;60.38;101274.53;5514778;32;34232;-83
2023/03/17 07:00:47;;;;;;;15.82;9.30;;;;;;;6.24;53.43;101279.16;5518909;32;33924;-83
2023/03/17 07:03:50;;;;;;;12.98;8.38;;;;;;;6.37;50.71;101279.81;5531287;32;34115;-83
2023/03/17 07:06:53;;;;;;;16.02;8.82;;;;;;;8.53;45.99;101287.47;5526632;32;33713;-81
2023/03/17 07:09:57;;;;;;;15.90;9.25;;;;;;;10.02;40.92;101289.31;5526562;32;35088;-83
2023/03/17 07:13:01;;;;;;;12.73;8.57;;;;;;;11.69;37.50;101294.91;5512006;32;34346;-82
2023/03/17 07:16:04;;;;;;;18.23;9.30;;;;;;;12.13;35.80;101291.41;5512681;32;34076;-82
2023/03/17 07:19:07;;;;;;;13.30;9.32;;;;;;;13.70;33.67;101287.13;5530006;32;34111;-82
2023/03/17 07:22:13;;;;;;;12.88;8.15;;;;;;;14.68;31.77;101292.03;5531831;32;33942;-82
2023/03/17 07:25:16;;;;;;;13.05;8.75;;;;;;;15.28;29.94;101301.34;5532701;32;33809;-86
2023/03/17 07:28:20;;;;;;;13.68;8.93;;;;;;;16.57;29.10;101295.84;5533663;32;33563;-87
2023/03/17 07:31:24;;;;;;;15.32;8.82;;;;;;;16.21;27.94;101300.66;5533568;32;33805;-88
2023/03/17 07:34:27;;;;;;;11.50;7.97;;;;;;;16.63;26.26;101308.00;5536903;32;34752;-87
2023/03/17 07:37:30;;;;;;;11.07;8.30;;;;;;;16.61;26.49;101300.06;5534177;32;34593;-82
2023/03/17 07:40:33;;;;;;;15.00;8.35;;;;;;;17.20;25.74;101299.16;5533763;32;34322;-82
2023/03/17 07:43:37;;;;;;;13.30;7.75;;;;;;;18.44;24.03;101294.75;5534445;32;33918;-82
2023/03/17 07:46:39;;;;;;;12.80;8.50;;;;;;;17.54;23.81;101297.97;5531395;32;34212;-82
2023/03/17 07:49:43;;;;;;;13.70;8.27;;;;;;;19.55;22.48;101306.72;5519280;32;33761;-82
2023/03/17 07:52:46;;;;;;;12.68;8.73;;;;;;;21.16;21.22;101300.06;5539041;32;33787;-84
2023/03/17 07:55:49;;;;;;;13.48;9.23;;;;;;;21.83;20.56;101297.41;5528199;32;34026;-83
2023/03/17 07:58:52;;;;;;;23.00;9.00;;;;;;;23.84;18.63;101302.63;5519212;32;34945;-82
2023/03/17 08:01:56;;;;;;;15.90;9.02;;;;;;;24.87;17.29;101302.13;5528019;32;33653;-83
2023/03/17 08:05:00;;;;;;;15.43;9.00;;;;;;;25.02;16.74;101302.50;5539869;32;33976;-82
2023/03/17 08:08:05;;;;;;;12.88;9.30;;;;;;;24.32;17.47;101303.63;5540000;32;34148;-83
2023/03/17 08:11:08;;;;;;;18.08;9.20;;;;;;;22.49;18.49;101288.25;5539307;32;33616;-83
2023/03/17 08:14:11;;;;;;;12.95;8.52;;;;;;;24.49;17.01;101280.34;5543705;32;34071;-83
2023/03/17 08:17:15;;;;;;;15.48;9.57;;;;;;;24.68;16.75;101285.88;5539050;32;33123;-84
2023/03/17 08:20:18;;;;;;;18.52;8.70;;;;;;;25.71;16.13;101284.97;5527799;32;34046;-84
2023/03/17 08:23:21;;;;;;;14.55;8.32;;;;;;;26.17;15.92;101281.31;5522077;32;33543;-84
2023/03/17 08:26:24;;;;;;;10.15;7.28;;;;;;;27.11;14.52;101281.59;5523121;32;34009;-83
2023/03/17 08:29:27;;;;;;;9.98;7.22;;;;;;;24.61;16.04;101274.75;5522549;32;33580;-83
2023/03/17 08:32:31;;;;;;;12.63;6.60;;;;;;;19.73;19.64;101274.94;5528679;32;33883;-83
2023/03/17 08:35:36;;;;;;;13.35;6.78;;;;;;;20.75;19.45;101276.25;5540319;32;34889;-83
2023/03/17 08:38:40;;;;;;;10.32;6.55;;;;;;;20.44;19.68;101267.84;5543825;32;35301;-83
2023/03/17 08:41:43;;;;;;;13.65;7.03;;;;;;;19.44;20.95;101267.16;5528714;32;35189;-82
2023/03/17 08:44:46;;;;;;;11.10;6.72;;;;;;;21.40;19.54;101270.22;5524382;32;33956;-83
2023/03/17 08:47:49;;;;;;;11.95;5.87;;;;;;;20.18;20.24;101266.19;5538766;32;34233;-83
2023/03/17 08:50:52;;;;;;;7.15;4.65;;;;;;;18.74;25.12;101252.44;5542585;32;34334;-83
2023/03/17 08:53:55;;;;;;;6.60;4.25;;;;;;;17.20;21.70;101263.47;5544510;32;33653;-83
2023/03/17 08:56:58;;;;;;;4.93;3.37;;;;;;;15.60;23.62;101263.91;5530178;32;34255;-82
2023/03/17 09:00:05;;;;;;;4.32;3.17;;;;;;;14.08;24.25;101256.81;5531115;32;33646;-82
2023/03/17 09:03:09;;;;;;;9.45;3.90;;;;;;;14.27;23.51;101261.19;5534552;32;34140;-82
2023/03/17 09:06:12;;;;;;;8.52;3.60;;;;;;;14.05;25.20;101261.44;5550352;32;34673;-82
2023/03/17 09:09:15;;;;;;;8.07;3.90;;;;;;;14.60;23.50;101262.19;5551110;32;33832;-82
2023/03/17 09:12:19;;;;;;;6.50;4.03;;;;;;;14.32;23.74;101261.00;5551571;32;33691;-82
2023/03/17 09:15:22;;;;;;;7.50;4.03;;;;;;;12.11;26.46;101266.63;5553204;32;34037;-83
2023/03/17 09:18:25;;;;;;;6.75;4.12;;;;;;;12.61;26.49;101264.53;5549583;32;34086;-83
2023/03/17 09:21:27;;;;;;;6.25;3.75;;;;;;;12.89;25.10;101269.50;5550326;32;34348;-83
2023/03/17 09:24:30;;;;;;;6.75;4.00;;;;;;;12.87;24.78;101266.03;5550838;32;33994;-81
2023/03/17 09:27:33;;;;;;;8.00;4.10;;;;;;;13.16;24.98;101260.28;5541343;32;34206;-82
2023/03/17 09:30:36;;;;;;;7.18;4.10;;;;;;;13.93;24.98;101254.91;5527888;32;33778;-82
2023/03/17 09:33:40;;;;;;;6.80;3.75;;;;;;;14.17;25.05;101257.28;5538806;32;34177;-82
2023/03/17 09:36:43;;;;;;;7.15;4.10;;;;;;;14.88;24.35;101258.97;5537695;32;33930;-82
2023/03/17 09:39:46;;;;;;;8.63;3.85;;;;;;;15.11;27.22;101259.53;5537116;32;34243;-83
2023/03/17 09:43:17;;;;;;;5.32;3.40;;;;;;;15.36;23.84;101256.38;5530627;32;34419;-86
2023/03/17 09:46:45;;;;;;;4.87;3.45;;;;;;;14.49;22.93;101246.75;5529398;32;33928;-83
2023/03/17 09:49:57;;;;;;;5.12;3.37;;;;;;;14.18;24.89;101249.19;5532589;32;34097;-83
2023/03/17 09:53:03;;;;;;;9.30;3.83;;;;;;;14.59;23.92;101244.47;5549740;32;34587;-82
2023/03/17 09:56:12;;;;;;;5.35;3.40;;;;;;;14.60;28.76;101236.38;5540560;32;33831;-82
2023/03/17 09:59:39;;;;;;;6.30;3.50;;;;;;;14.64;24.32;101234.41;5533924;32;33988;-83
2023/03/17 10:02:43;;;;;;;7.70;3.75;;;;;;;13.74;23.83;101237.16;5534552;32;33955;-83
2023/03/17 10:05:45;;;;;;;6.62;3.62;;;;;;;13.73;26.78;101222.12;5531633;32;35507;-83
2023/03/17 10:09:12;;;;;;;5.10;3.50;;;;;;;14.30;27.29;101218.34;5527614;32;33988;-83
2023/03/17 10:12:32;;;;;;;6.78;3.83;;;;;;;15.03;23.12;101219.00;5531485;32;35154;-82
2023/03/17 10:15:44;;;;;;;5.22;3.45;;;;;;;14.65;24.14;101218.31;5531477;32;33684;-83
2023/03/17 10:18:55;;;;;;;7.03;4.03;;;;;;;14.59;23.05;101217.75;5531026;32;34398;-86
2023/03/17 10:22:04;;;;;;;8.30;4.05;;;;;;;14.68;24.06;101223.47;5531298;32;33788;-82
2023/03/17 10:25:17;;;;;;;4.70;3.50;;;;;;;14.58;23.94;101214.22;5532703;32;34138;-82
2023/03/17 10:28:28;;;;;;;6.43;3.55;;;;;;;14.85;29.01;101215.53;5532311;32;34757;-82
2023/03/17 10:31:34;;;;;;;8.95;3.87;;;;;;;15.21;22.81;101212.66;5534968;32;34473;-82
2023/03/17 10:34:38;;;;;;;7.68;3.97;;;;;;;14.97;23.46;101201.50;5534812;32;33992;-82
2023/03/17 10:37:42;;;;;;;5.30;3.70;;;;;;;15.11;23.39;101198.06;5531749;32;33954;-83
2023/03/17 10:40:57;;;;;;;8.20;4.32;;;;;;;16.24;23.97;101179.16;5531913;32;33573;-82
2023/03/17 10:44:00;;;;;;;21.65;4.00;;;;;;;18.27;20.83;101183.13;5529220;32;34476;-82
2023/03/17 10:47:02;;;;;;;5.40;3.67;;;;;;;18.24;21.07;101188.69;5530126;32;34361;-82
2023/03/17 10:50:15;;;;;;;10.93;4.07;;;;;;;16.21;20.34;101193.56;5532556;32;34023;-83
2023/03/17 10:53:29;;;;;;;6.28;3.78;;;;;;;15.88;21.85;101189.25;5527103;32;33645;-82
2023/03/17 10:56:38;;;;;;;8.30;4.07;;;;;;;14.23;23.31;101187.59;5533277;32;34064;-82
2023/03/17 10:59:46;;;;;;;7.68;3.97;;;;;;;13.47;23.84;101177.13;5533350;32;34498;-83
2023/03/17 11:02:57;;;;;;;6.22;3.95;;;;;;;14.13;23.83;101180.06;5533147;32;34086;-83
2023/03/17 11:06:11;;;;;;;6.18;3.80;;;;;;;13.60;23.60;101173.84;5534321;32;34469;-84
2023/03/17 11:09:18;;;;;;;6.55;3.70;;;;;;;13.50;23.70;101169.91;5528034;32;34538;-83
2023/03/17 11:12:32;;;;;;;6.82;4.28;;;;;;;15.01;21.99;101173.66;5537976;32;34047;-83
2023/03/17 11:15:42;;;;;;;6.03;4.10;;;;;;;16.38;20.60;101160.41;5528857;32;33670;-86
2023/03/17 11:18:47;;;;;;;6.68;3.70;;;;;;;15.92;20.68;101155.13;5525660;32;33796;-82
2023/03/17 11:21:58;;;;;;;5.75;4.03;;;;;;;14.85;21.82;101152.28;5531203;32;33727;-82
2023/03/17 11:25:12;;;;;;;5.68;4.20;;;;;;;13.96;23.25;101148.94;5532124;32;33650;-82
2023/03/17 11:28:20;;;;;;;8.38;3.85;;;;;;;12.76;24.42;101145.84;5531679;32;33999;-81
2023/03/17 11:31:41;;;;;;;7.00;4.25;;;;;;;13.36;25.93;101142.13;5532930;32;33972;-82
2023/03/17 11:35:12;;;;;;;6.82;4.12;;;;;;;13.19;24.88;101141.13;5539737;32;33956;-82
2023/03/17 11:38:27;;;;;;;8.05;4.10;;;;;;;13.88;24.48;101127.12;5530531;32;34455;-82
2023/03/17 11:41:55;;;;;;;7.20;3.80;;;;;;;16.19;22.93;101122.34;5533783;32;34132;-82
2023/03/17 11:45:08;;;;;;;6.85;3.83;;;;;;;14.28;24.73;101127.69;5532592;32;34144;-83
2023/03/17 11:48:21;;;;;;;6.80;4.30;;;;;;;14.00;23.86;101117.63;5532809;32;34116;-82
2023/03/17 11:51:49;;;;;;;7.37;4.43;;;;;;;12.95;25.35;101113.91;5531095;32;34972;-88
2023/03/17 11:55:00;;;;;;;7.22;4.28;;;;;;;12.22;25.40;101094.16;5515026;32;33637;-83
2023/03/17 11:58:08;;;;;;;7.62;4.53;;;;;;;12.14;25.75;101093.66;5533720;32;34483;-82
2023/03/17 12:01:36;;;;;;;6.40;4.45;;;;;;;11.43;26.27;101084.25;5538580;32;34450;-82
2023/03/17 12:04:56;;;;;;;8.02;4.57;;;;;;;11.31;27.19;101083.84;5533112;32;34551;-82
2023/03/17 12:08:04;;;;;;;10.63;4.30;;;;;;;11.38;27.27;101081.81;5537244;32;32871;-82
2023/03/17 12:11:14;;;;;;;10.98;4.60;;;;;;;11.60;27.32;101067.59;5531552;32;34059;-83
2023/03/17 12:14:51;;;;;;;6.82;4.47;;;;;;;11.82;26.83;101051.56;5530851;32;34067;-83
2023/03/17 12:18:31;;;;;;;6.43;4.37;;;;;;;11.85;26.92;101054.09;5529561;32;34143;-84
2023/03/17 12:21:51;;;;;;;11.63;4.82;;;;;;;11.37;27.40;101049.97;5523771;32;34300;-85
2023/03/17 12:25:25;;;;;;;9.70;4.72;;;;;;;11.40;27.98;101052.50;5532279;32;34179;-84
2023/03/17 12:28:41;;;;;;;5.75;4.35;;;;;;;10.31;29.07;101057.63;5530690;32;34443;-84
2023/03/17 12:31:51;;;;;;;6.68;5.10;;;;;;;10.67;28.48;101047.47;5525852;32;32912;-84
2023/03/17 12:34:56;;;;;;;9.80;4.80;;;;;;;10.64;28.49;101041.38;5527175;32;33682;-84
2023/03/17 12:38:29;;;;;;;6.75;4.60;;;;;;;11.08;28.32;101036.13;5526355;32;34502;-84
2023/03/17 12:42:00;;;;;;;6.72;4.60;;;;;;;11.23;28.37;101024.00;5517886;32;34014;-84
2023/03/17 12:45:03;;;;;;;6.90;5.00;;;;;;;11.26;28.17;101034.50;5535056;32;34148;-83
2023/03/17 12:48:23;;;;;;;7.60;4.47;;;;;;;10.99;28.16;101029.41;5528150;32;33984;-86
2023/03/17 12:51:42;;;;;;;4.93;4.03;;;;;;;11.20;27.10;101022.31;5529443;32;34069;-86
2023/03/17 12:54:48;;;;;;;9.82;4.30;;;;;;;11.12;28.18;101020.00;5530443;32;34745;-84
2023/03/17 12:58:04;;;;;;;8.23;4.95;;;;;;;11.54;27.96;101012.94;5533050;32;31927;-83
2023/03/17 13:01:16;;;;;;;5.65;4.00;;;;;;;11.21;27.55;101021.41;5538057;32;34873;-83
2023/03/17 13:04:25;;;;;;;9.10;4.28;;;;;;;10.61;28.73;101020.25;5531363;32;33991;-83
2023/03/17 13:07:52;;;;;;;8.00;4.35;;;;;;;10.28;28.39;101014.44;5531055;32;34044;-83
2023/03/17 13:11:26;;;;;;;9.48;4.25;;;;;;;10.36;28.27;101009.75;5530356;32;34058;-82
2023/03/17 13:14:46;;;;;;;7.68;3.92;;;;;;;10.38;27.93;101008.72;5515594;32;33741;-82
2023/03/17 13:17:51;;;;;;;7.55;4.55;;;;;;;10.27;28.30;100997.69;5530781;32;34072;-81
2023/03/17 13:20:56;;;;;;;7.15;4.60;;;;;;;10.45;28.21;100987.28;5529609;32;33945;-82
2023/03/17 13:24:14;;;;;;;6.50;4.00;;;;;;;10.37;28.45;100990.25;5530185;32;34219;-86
2023/03/17 13:27:23;;;;;;;9.68;4.60;;;;;;;10.47;28.53;100988.97;5529887;32;34403;-82
2023/03/17 13:30:34;;;;;;;6.97;3.67;;;;;;;10.53;28.73;100990.53;5532503;32;34690;-83
2023/03/17 13:33:48;;;;;;;7.87;4.40;;;;;;;10.54;28.13;100984.28;5534491;32;34142;-83
2023/03/17 13:37:12;;;;;;;6.65;4.43;;;;;;;10.67;28.27;100981.16;5543022;32;34760;-83
2023/03/17 13:40:33;;;;;;;9.63;4.60;;;;;;;10.56;29.06;100986.91;5539503;32;34122;-82
2023/03/17 13:43:36;;;;;;;;;;;;;;;10.38;28.82;100987.50;5536417;32;34479;-83
2023/03/17 13:46:47;;;;;;;8.95;5.22;;;;;;;10.39;29.06;100983.09;5533825;32;34424;-83
2023/03/17 13:49:55;;;;;;;7.47;4.82;;;;;;;10.50;28.81;100985.34;5533668;32;33748;-84
2023/03/17 13:53:09;;;;;;;8.52;4.75;;;;;;;10.56;28.66;100987.75;5540334;32;33766;-84
2023/03/17 13:56:18;;;;;;;9.95;4.68;;;;;;;10.75;28.79;100982.56;5534120;32;34443;-84
2023/03/17 13:59:31;;;;;;;7.15;4.85;;;;;;;10.60;28.97;100983.19;5529770;32;34053;-82
2023/03/17 14:02:38;;;;;;;9.15;5.10;;;;;;;10.46;29.41;100979.28;5532291;32;34764;-82
2023/03/17 14:05:45;;;;;;;7.47;4.50;;;;;;;10.35;30.18;100974.38;5527542;32;33516;-82
2023/03/17 14:08:56;;;;;;;6.93;4.10;;;;;;;10.40;29.10;100974.19;5530988;32;33959;-85
2023/03/17 14:12:01;;;;;;;;;;;;;;;10.17;29.32;100972.44;5530780;32;34089;-88
2023/03/17 14:15:15;;;;;;;9.20;4.80;;;;;;;10.22;29.18;100962.53;5526612;32;34751;-84
2023/03/17 14:18:27;;;;;;;8.80;4.53;;;;;;;10.33;29.51;100956.81;5528569;32;34598;-84
2023/03/17 14:21:30;;;;;;;;;;;;;;;10.34;29.13;100953.22;5531179;32;34734;-84
2023/03/17 14:24:33;;;;;;;5.68;4.47;;;;;;;10.21;29.39;100940.44;5531053;32;34296;-83
2023/03/17 14:27:38;;;;;;;6.95;4.80;;;;;;;10.14;29.41;100940.72;5522970;32;34173;-83
2023/03/17 14:30:51;;;;;;;7.55;4.53;;;;;;;10.31;29.46;100935.63;5533485;32;34027;-84
2023/03/17 14:33:56;;;;;;;6.95;4.62;;;;;;;10.51;30.26;100932.22;5535448;32;34175;-84
2023/03/17 14:37:01;;;;;;;9.27;4.22;;;;;;;10.76;29.51;100933.03;5531312;32;34119;-84
2023/03/17 14:40:18;;;;;;;6.30;4.68;;;;;;;11.30;29.72;100930.72;5531574;32;33879;-84
2023/03/17 14:43:21;;;;;;;6.43;4.50;;;;;;;10.92;28.77;100922.63;5531855;32;34393;-81
2023/03/17 14:46:24;;;;;;;6.20;4.40;;;;;;;10.84;29.30;100919.41;5532451;32;33955;-81
2023/03/17 14:49:28;;;;;;;8.32;4.55;;;;;;;10.83;29.14;100915.91;5531542;32;34149;-81
2023/03/17 14:52:33;;;;;;;7.95;4.57;;;;;;;10.80;29.25;100907.22;5531981;32;34069;-81
2023/03/17 14:55:39;;;;;;;7.40;4.20;;;;;;;10.47;29.01;100906.75;5532335;32;33820;-83
2023/03/17 14:58:47;;;;;;;5.75;4.32;;;;;;;10.41;29.58;100903.47;5527160;32;34314;-82
2023/03/17 15:02:00;;;;;;;6.57;4.60;;;;;;;10.52;30.09;100893.31;5529502;32;34280;-82
2023/03/17 15:05:25;;;;;;;12.30;4.18;;;;;;;10.81;29.64;100891.22;5530158;32;33832;-83
2023/03/17 15:08:29;;;;;;;9.50;4.62;;;;;;;10.49;30.45;100889.00;5533137;32;33607;-83
2023/03/17 15:11:42;;;;;;;8.10;5.10;;;;;;;10.74;29.80;100887.09;5522087;32;34361;-82
2023/03/17 15:14:46;;;;;;;7.85;4.62;;;;;;;10.55;29.51;100884.37;5519444;32;34039;-87
2023/03/17 15:17:58;;;;;;;8.15;4.80;;;;;;;10.39;29.60;100877.00;5522756;32;34044;-84
2023/03/17 15:21:02;;;;;;;6.87;5.07;;;;;;;10.51;29.72;100884.47;5535615;32;34679;-83
2023/03/17 15:24:21;;;;;;;6.68;4.62;;;;;;;10.67;29.54;100869.72;5532301;32;34547;-83
2023/03/17 15:27:25;;;;;;;9.40;4.43;;;;;;;10.42;29.51;100871.59;5530114;32;33620;-82
2023/03/17 15:30:28;;;;;;;8.38;4.78;;;;;;;10.35;29.64;100870.97;5530216;32;34501;-81
2023/03/17 15:33:47;;;;;;;6.85;4.72;;;;;;;10.31;30.16;100864.03;5530012;32;34494;-82
2023/03/17 15:36:50;;;;;;;9.55;4.72;;;;;;;10.29;30.49;100859.72;5531005;32;34782;-82
2023/03/17 15:39:54;;;;;;;8.77;4.93;;;;;;;10.02;30.94;100859.91;5525769;32;34126;-83
2023/03/17 15:42:57;;;;;;;7.53;4.62;;;;;;;10.02;31.49;100862.56;5533532;32;33596;-82
2023/03/17 15:46:03;;;;;;;7.47;4.50;;;;;;;9.92;30.94;100859.41;5532505;32;33988;-82
2023/03/17 15:49:11;;;;;;;8.38;4.97;;;;;;;9.59;31.13;100862.47;5530018;32;33826;-83
2023/03/17 15:52:24;;;;;;;12.70;5.00;;;;;;;9.47;31.36;100856.69;5531033;32;33491;-82
2023/03/17 15:55:28;;;;;;;11.27;5.00;;;;;;;9.56;31.46;100863.44;5532885;32;34111;-83
2023/03/17 15:58:31;;;;;;;7.28;4.82;;;;;;;9.48;31.09;100853.13;5530559;32;33810;-82
2023/03/17 16:01:36;;;;;;;7.78;4.87;;;;;;;9.51;31.11;100858.28;5531826;32;35239;-82
2023/03/17 16:04:39;;;;;;;7.37;4.72;;;;;;;9.34;31.11;100848.34;5532689;32;34060;-82
2023/03/17 16:07:42;;;;;;;9.07;5.05;;;;;;;9.20;31.20;100845.34;5534870;32;33924;-82
2023/03/17 16:10:45;;;;;;;10.27;4.70;;;;;;;9.09;31.27;100848.34;5538896;32;34264;-82
2023/03/17 16:13:48;;;;;;;8.68;4.87;;;;;;;9.05;31.29;100850.25;5531928;32;35003;-83
2023/03/17 16:16:51;;;;;;;6.18;4.65;;;;;;;9.01;31.44;100848.66;5535592;32;34051;-83
